createdAt,value
2017-07-28T00:02:14.224Z,95.30
2017-07-28T00:04:41.719Z,95.20
2017-07-28T00:07:09.229Z,95.20
2017-07-28T00:09:36.721Z,95.00
2017-07-28T00:12:04.284Z,95.00
2017-07-28T00:14:31.764Z,94.80
2017-07-28T00:16:59.287Z,94.60
2017-07-28T00:19:26.776Z,94.70
2017-07-28T00:21:54.319Z,94.70
2017-07-28T00:24:21.810Z,94.60
2017-07-28T00:26:49.321Z,94.60
2017-07-28T00:29:16.839Z,95.10
2017-07-28T00:31:44.345Z,96.60
2017-07-28T00:34:11.842Z,96.80
2017-07-28T00:36:39.344Z,96.80
2017-07-28T00:39:06.919Z,96.80
2017-07-28T00:41:34.435Z,96.80
2017-07-28T00:44:01.932Z,96.90
2017-07-28T00:46:29.448Z,96.50
2017-07-28T00:48:56.928Z,96.20
2017-07-28T00:51:24.452Z,95.80
2017-07-28T00:53:51.951Z,95.60
2017-07-28T00:56:19.440Z,95.60
2017-07-28T00:58:47.728Z,95.20
2017-07-28T01:01:15.240Z,95.20
2017-07-28T01:03:42.765Z,95.10
2017-07-28T01:06:10.251Z,95.10
2017-07-28T01:08:37.763Z,95.00
2017-07-28T01:11:06.025Z,94.60
2017-07-28T01:13:34.308Z,94.80
2017-07-28T01:16:01.798Z,94.60
2017-07-28T01:18:29.320Z,94.60
2017-07-28T01:20:56.797Z,94.40
2017-07-28T01:23:24.328Z,94.30
2017-07-28T01:25:51.821Z,94.30
2017-07-28T01:28:19.325Z,94.20
2017-07-28T01:30:46.811Z,94.00
2017-07-28T01:33:14.343Z,93.90
2017-07-28T01:35:41.828Z,93.70
2017-07-28T01:38:09.403Z,93.70
2017-07-28T01:40:36.899Z,93.80
2017-07-28T01:43:04.433Z,94.00
2017-07-28T01:45:31.929Z,94.80
2017-07-28T01:47:59.420Z,95.60
2017-07-28T01:50:26.934Z,96.20
2017-07-28T01:52:54.412Z,96.60
2017-07-28T01:55:21.919Z,97.20
2017-07-28T01:57:49.428Z,97.30
2017-07-28T02:00:16.929Z,97.20
2017-07-28T02:02:44.413Z,97.30
2017-07-28T02:05:11.908Z,97.70
2017-07-28T02:07:39.397Z,97.50
2017-07-28T02:10:06.912Z,97.50
2017-07-28T02:12:34.399Z,97.60
2017-07-28T02:15:01.923Z,97.50
2017-07-28T02:17:29.413Z,97.80
2017-07-28T02:19:56.934Z,97.60
2017-07-28T02:22:24.421Z,97.70
2017-07-28T02:24:51.987Z,97.00
2017-07-28T02:27:19.491Z,96.90
2017-07-28T02:29:47.007Z,97.00
2017-07-28T02:32:14.541Z,97.20
2017-07-28T02:34:42.825Z,97.10
2017-07-28T02:37:10.308Z,97.10
2017-07-28T02:39:37.808Z,97.30
2017-07-28T02:42:05.327Z,97.40
2017-07-28T02:44:32.824Z,97.40
2017-07-28T02:47:00.357Z,97.70
2017-07-28T02:49:27.858Z,97.70
2017-07-28T02:51:55.388Z,97.70
2017-07-28T02:54:22.864Z,97.30
2017-07-28T02:56:50.385Z,97.30
2017-07-28T02:59:17.870Z,97.40
2017-07-28T03:01:45.385Z,97.60
2017-07-28T03:04:12.880Z,97.40
2017-07-28T03:06:40.387Z,97.10
2017-07-28T03:09:07.872Z,97.20
2017-07-28T03:11:35.372Z,97.20
2017-07-28T03:14:02.869Z,97.40
2017-07-28T03:16:30.377Z,97.90
2017-07-28T03:18:57.869Z,97.70
2017-07-28T03:21:25.365Z,97.50
2017-07-28T03:23:52.855Z,97.10
2017-07-28T03:26:20.369Z,96.90
2017-07-28T03:28:47.856Z,96.50
2017-07-28T03:31:15.410Z,96.90
2017-07-28T03:33:42.914Z,96.50
2017-07-28T03:36:10.404Z,96.20
2017-07-28T03:38:37.896Z,96.30
2017-07-28T03:41:05.388Z,95.70
2017-07-28T03:43:32.897Z,96.00
2017-07-28T03:46:00.392Z,96.00
2017-07-28T03:48:27.899Z,95.80
2017-07-28T03:50:55.371Z,96.00
2017-07-28T03:53:22.881Z,95.70
2017-07-28T03:55:50.369Z,95.70
2017-07-28T03:58:17.871Z,96.00
2017-07-28T04:00:45.358Z,95.80
2017-07-28T04:03:12.855Z,95.40
2017-07-28T04:05:40.341Z,95.10
2017-07-28T04:08:07.854Z,94.80
2017-07-28T04:10:35.347Z,94.70
2017-07-28T04:13:02.852Z,94.60
2017-07-28T04:15:30.329Z,94.60
2017-07-28T04:17:57.875Z,94.20
2017-07-28T04:20:25.371Z,94.30
2017-07-28T04:22:52.914Z,94.10
2017-07-28T04:25:20.400Z,94.10
2017-07-28T04:27:47.877Z,94.00
2017-07-28T04:30:15.371Z,93.70
2017-07-28T04:32:42.854Z,93.40
2017-07-28T04:35:10.354Z,93.40
2017-07-28T04:37:37.845Z,93.50
2017-07-28T04:40:05.397Z,93.40
2017-07-28T04:42:32.949Z,93.50
2017-07-28T04:45:00.463Z,93.90
2017-07-28T04:47:28.018Z,94.70
2017-07-28T04:49:55.532Z,94.80
2017-07-28T04:52:23.026Z,94.80
2017-07-28T04:54:50.563Z,95.00
2017-07-28T04:57:18.048Z,94.60
2017-07-28T04:59:45.556Z,94.10
2017-07-28T05:02:13.069Z,94.40
2017-07-28T05:04:41.344Z,94.30
2017-07-28T05:07:08.828Z,94.30
2017-07-28T05:09:36.339Z,94.70
2017-07-28T05:12:03.836Z,94.50
2017-07-28T05:14:31.348Z,93.90
2017-07-28T05:16:58.837Z,93.80
2017-07-28T05:19:26.372Z,93.40
2017-07-28T05:21:54.676Z,93.20
2017-07-28T05:24:22.179Z,93.20
2017-07-28T05:26:49.698Z,93.00
2017-07-28T05:29:17.229Z,93.40
2017-07-28T05:31:44.769Z,93.30
2017-07-28T05:34:13.939Z,93.40
2017-07-28T05:36:41.513Z,93.40
2017-07-28T05:39:09.009Z,93.10
2017-07-28T05:41:36.591Z,93.40
2017-07-28T05:44:04.104Z,93.10
2017-07-28T05:46:31.650Z,93.10
2017-07-28T05:48:59.194Z,93.10
2017-07-28T05:51:26.701Z,93.20
2017-07-28T05:53:54.203Z,93.20
2017-07-28T05:56:21.707Z,92.70
2017-07-28T05:58:49.271Z,92.60
2017-07-28T06:01:16.989Z,92.40
2017-07-28T06:03:44.541Z,92.30
2017-07-28T06:06:12.072Z,92.10
2017-07-28T06:08:39.601Z,91.90
2017-07-28T06:11:07.914Z,91.60
2017-07-28T06:13:35.448Z,91.50
2017-07-28T06:16:03.035Z,91.80
2017-07-28T06:18:31.323Z,91.60
2017-07-28T06:20:58.849Z,91.60
2017-07-28T06:23:26.420Z,91.90
2017-07-28T06:25:53.913Z,91.70
2017-07-28T06:28:21.434Z,91.50
2017-07-28T06:30:49.006Z,91.50
2017-07-28T06:33:16.559Z,91.20
2017-07-28T06:35:44.076Z,90.90
2017-07-28T06:38:11.640Z,90.40
2017-07-28T06:40:39.187Z,90.70
2017-07-28T06:43:07.632Z,90.70
2017-07-28T06:45:35.607Z,90.70
2017-07-28T06:48:04.027Z,90.30
2017-07-28T06:50:32.477Z,90.20
2017-07-28T06:53:00.009Z,89.60
2017-07-28T06:55:27.513Z,89.20
2017-07-28T06:57:55.043Z,88.50
2017-07-28T07:00:22.578Z,89.50
2017-07-28T07:02:50.151Z,88.90
2017-07-28T07:05:17.660Z,89.20
2017-07-28T07:07:45.230Z,89.30
2017-07-28T07:10:12.912Z,88.90
2017-07-28T07:12:41.339Z,87.40
2017-07-28T07:15:10.407Z,85.00
2017-07-28T07:17:38.061Z,84.60
2017-07-28T07:20:05.765Z,86.10
2017-07-28T07:22:33.274Z,86.20
2017-07-28T07:25:00.812Z,85.60
2017-07-28T07:27:28.309Z,83.10
2017-07-28T07:29:55.828Z,82.70
2017-07-28T07:32:23.528Z,81.90
2017-07-28T07:34:51.052Z,81.70
2017-07-28T07:37:18.616Z,79.20
2017-07-28T07:39:46.133Z,80.10
2017-07-28T07:42:13.650Z,79.80
2017-07-28T07:44:41.149Z,79.50
2017-07-28T07:47:08.637Z,80.60
2017-07-28T07:49:36.151Z,78.40
2017-07-28T07:52:04.796Z,77.90
2017-07-28T07:54:32.303Z,77.90
2017-07-28T07:56:59.782Z,77.90
2017-07-28T07:59:27.309Z,76.10
2017-07-28T08:01:54.929Z,76.30
2017-07-28T08:04:22.499Z,73.80
2017-07-28T08:06:50.000Z,73.70
2017-07-28T08:09:17.505Z,72.90
2017-07-28T08:11:45.325Z,71.90
2017-07-28T08:14:13.167Z,71.50
2017-07-28T08:16:40.900Z,73.00
2017-07-28T08:19:08.397Z,70.80
2017-07-28T08:21:36.076Z,71.00
2017-07-28T08:24:03.554Z,71.20
2017-07-28T08:26:31.067Z,71.20
2017-07-28T08:28:58.776Z,70.90
2017-07-28T08:31:26.276Z,71.70
2017-07-28T08:33:53.828Z,71.90
2017-07-28T08:36:21.327Z,71.80
2017-07-28T08:38:49.939Z,69.30
2017-07-28T08:41:17.436Z,67.50
2017-07-28T08:43:44.915Z,67.30
2017-07-28T08:46:12.425Z,67.70
2017-07-28T08:48:39.928Z,66.50
2017-07-28T08:51:07.454Z,66.50
2017-07-28T08:53:34.929Z,66.90
2017-07-28T08:56:02.450Z,65.90
2017-07-28T08:58:29.961Z,66.90
2017-07-28T09:00:57.518Z,66.30
2017-07-28T09:03:25.169Z,66.30
2017-07-28T09:05:52.657Z,65.40
2017-07-28T09:08:20.964Z,64.20
2017-07-28T09:10:48.468Z,64.00
2017-07-28T09:13:15.999Z,65.80
2017-07-28T09:15:43.551Z,65.10
2017-07-28T09:18:11.047Z,65.40
2017-07-28T09:20:38.590Z,63.90
2017-07-28T09:23:06.117Z,64.60
2017-07-28T09:25:33.871Z,63.80
2017-07-28T09:28:01.377Z,64.80
2017-07-28T09:30:28.909Z,61.40
2017-07-28T09:32:57.232Z,59.50
2017-07-28T09:35:25.031Z,59.50
2017-07-28T09:37:52.583Z,58.30
2017-07-28T09:40:20.108Z,58.20
2017-07-28T09:42:47.746Z,58.40
2017-07-28T09:45:15.261Z,58.20
2017-07-28T09:47:42.763Z,60.60
2017-07-28T09:50:10.250Z,59.60
2017-07-28T09:52:38.797Z,59.60
2017-07-28T09:55:06.339Z,59.40
2017-07-28T09:57:34.062Z,60.10
2017-07-28T10:00:01.578Z,58.90
2017-07-28T10:02:29.074Z,59.60
2017-07-28T10:04:56.674Z,59.40
2017-07-28T10:07:24.927Z,59.20
2017-07-28T10:09:53.214Z,60.70
2017-07-28T10:12:20.798Z,60.60
2017-07-28T10:14:48.316Z,61.40
2017-07-28T10:17:16.688Z,61.50
2017-07-28T10:19:44.197Z,61.60
2017-07-28T10:22:11.687Z,61.30
2017-07-28T10:24:39.201Z,60.10
2017-07-28T10:27:06.691Z,58.10
2017-07-28T10:29:34.208Z,57.60
2017-07-28T10:32:01.849Z,57.50
2017-07-28T10:34:29.348Z,58.70
2017-07-28T10:36:56.855Z,57.20
2017-07-28T10:39:24.380Z,58.00
2017-07-28T10:41:51.910Z,55.90
2017-07-28T10:44:19.425Z,56.50
2017-07-28T10:46:47.012Z,56.00
2017-07-28T10:49:14.517Z,56.20
2017-07-28T10:51:42.002Z,56.40
2017-07-28T10:54:09.482Z,55.10
2017-07-28T10:56:37.752Z,54.00
2017-07-28T10:59:05.999Z,55.20
2017-07-28T11:01:33.500Z,55.10
2017-07-28T11:04:00.987Z,55.90
2017-07-28T11:06:29.257Z,56.40
2017-07-28T11:08:57.504Z,56.20
2017-07-28T11:11:25.036Z,56.20
2017-07-28T11:13:52.515Z,56.10
2017-07-28T11:16:20.167Z,56.20
2017-07-28T11:18:47.668Z,55.90
2017-07-28T11:21:15.211Z,56.40
2017-07-28T11:23:42.713Z,57.00
2017-07-28T11:26:10.218Z,57.40
2017-07-28T11:28:37.741Z,57.80
2017-07-28T11:31:05.321Z,57.50
2017-07-28T11:33:33.206Z,57.20
2017-07-28T11:36:00.719Z,57.50
2017-07-28T11:38:28.221Z,56.80
2017-07-28T11:40:55.748Z,57.00
2017-07-28T11:43:23.252Z,57.00
2017-07-28T11:45:50.755Z,56.20
2017-07-28T11:48:18.259Z,57.50
2017-07-28T11:50:45.780Z,58.10
2017-07-28T11:53:13.280Z,58.60
2017-07-28T11:55:40.793Z,58.30
2017-07-28T11:58:08.338Z,58.30
2017-07-28T12:00:35.830Z,58.20
2017-07-28T12:03:03.413Z,57.50
2017-07-28T12:05:30.920Z,57.20
2017-07-28T12:07:58.440Z,58.00
2017-07-28T12:10:25.925Z,58.30
2017-07-28T12:12:53.480Z,56.90
2017-07-28T12:15:20.967Z,57.20
2017-07-28T12:17:48.890Z,56.90
2017-07-28T12:20:16.427Z,57.70
2017-07-28T12:22:43.968Z,58.30
2017-07-28T12:25:12.584Z,57.70
2017-07-28T12:27:40.099Z,56.10
2017-07-28T12:30:07.701Z,56.30
2017-07-28T12:32:35.716Z,55.80
2017-07-28T12:35:09.488Z,56.70
2017-07-28T12:37:37.698Z,57.20
2017-07-28T12:40:05.851Z,56.60
2017-07-28T12:42:33.710Z,57.20
2017-07-28T12:45:02.313Z,56.90
2017-07-28T12:47:29.978Z,56.30
2017-07-28T12:49:57.705Z,56.30
2017-07-28T12:52:25.213Z,56.70
2017-07-28T12:54:52.806Z,57.20
2017-07-28T12:57:20.376Z,57.10
2017-07-28T12:59:48.148Z,55.50
2017-07-28T13:02:15.642Z,56.80
2017-07-28T13:04:43.309Z,56.10
2017-07-28T13:07:11.725Z,55.80
2017-07-28T13:09:40.199Z,55.70
2017-07-28T13:12:07.721Z,55.80
2017-07-28T13:14:35.221Z,56.10
2017-07-28T13:17:04.552Z,55.40
2017-07-28T13:19:32.357Z,55.20
2017-07-28T13:21:59.843Z,55.80
2017-07-28T13:24:27.458Z,55.90
2017-07-28T13:26:55.700Z,55.70
2017-07-28T13:29:23.222Z,55.70
2017-07-28T13:31:50.842Z,55.00
2017-07-28T13:34:18.386Z,55.20
2017-07-28T13:36:45.879Z,55.50
2017-07-28T13:39:13.522Z,55.10
2017-07-28T13:41:41.850Z,56.10
2017-07-28T13:44:09.397Z,56.10
2017-07-28T13:46:42.865Z,56.10
2017-07-28T13:49:10.387Z,56.20
2017-07-28T13:51:37.888Z,54.50
2017-07-28T13:54:05.374Z,54.90
2017-07-28T13:56:32.876Z,54.30
2017-07-28T13:59:00.369Z,53.30
2017-07-28T14:01:27.911Z,54.40
2017-07-28T14:03:55.424Z,54.40
2017-07-28T14:06:22.942Z,55.00
2017-07-28T14:08:50.468Z,55.70
2017-07-28T14:11:17.976Z,55.60
2017-07-28T14:13:45.485Z,54.90
2017-07-28T14:16:13.880Z,54.40
2017-07-28T14:18:41.376Z,54.30
2017-07-28T14:21:09.652Z,54.70
2017-07-28T14:23:37.901Z,54.70
2017-07-28T14:26:05.422Z,54.60
2017-07-28T14:28:32.923Z,54.10
2017-07-28T14:31:00.438Z,54.10
2017-07-28T14:33:28.684Z,54.60
2017-07-28T14:35:56.188Z,54.50
2017-07-28T14:38:23.696Z,55.10
2017-07-28T14:40:51.967Z,54.30
2017-07-28T14:43:19.455Z,54.20
2017-07-28T14:45:46.931Z,53.70
2017-07-28T14:48:15.197Z,54.20
2017-07-28T14:50:43.457Z,54.70
2017-07-28T14:53:10.963Z,54.70
2017-07-28T14:55:38.451Z,53.80
2017-07-28T14:58:05.980Z,53.90
2017-07-28T15:00:33.478Z,54.20
2017-07-28T15:03:01.000Z,55.20
2017-07-28T15:05:28.495Z,54.70
2017-07-28T15:07:56.004Z,53.90
2017-07-28T15:10:23.480Z,54.30
2017-07-28T15:12:50.975Z,53.50
2017-07-28T15:15:18.476Z,54.10
2017-07-28T15:17:46.117Z,53.90
2017-07-28T15:20:14.363Z,54.00
2017-07-28T15:22:41.874Z,54.00
2017-07-28T15:25:09.355Z,53.60
2017-07-28T15:27:37.407Z,53.70
2017-07-28T15:30:05.672Z,54.20
2017-07-28T15:32:33.179Z,54.10
2017-07-28T15:35:00.656Z,54.20
2017-07-28T15:37:28.979Z,54.10
2017-07-28T15:39:56.470Z,54.00
2017-07-28T15:42:24.716Z,53.20
2017-07-28T15:44:52.244Z,53.20
2017-07-28T15:47:19.740Z,53.00
2017-07-28T15:49:47.244Z,54.30
2017-07-28T15:52:14.749Z,55.00
2017-07-28T15:54:42.257Z,55.20
2017-07-28T15:57:09.779Z,54.40
2017-07-28T15:59:37.291Z,53.80
2017-07-28T16:02:04.768Z,54.10
2017-07-28T16:04:33.045Z,55.10
2017-07-28T16:07:00.525Z,55.00
2017-07-28T16:09:28.033Z,55.70
2017-07-28T16:11:55.519Z,55.10
2017-07-28T16:14:23.031Z,55.80
2017-07-28T16:16:50.529Z,56.30
2017-07-28T16:19:18.807Z,56.10
2017-07-28T16:21:46.295Z,55.50
2017-07-28T16:24:13.795Z,55.50
2017-07-28T16:26:41.280Z,54.70
2017-07-28T16:29:08.787Z,55.40
2017-07-28T16:31:36.274Z,55.60
2017-07-28T16:34:03.763Z,55.50
2017-07-28T16:36:32.035Z,54.80
2017-07-28T16:38:59.518Z,54.70
2017-07-28T16:41:27.020Z,54.70
2017-07-28T16:43:54.525Z,55.00
2017-07-28T16:46:22.032Z,53.80
2017-07-28T16:48:49.536Z,54.00
2017-07-28T16:51:17.043Z,54.40
2017-07-28T16:53:44.528Z,54.70
2017-07-28T16:56:12.043Z,54.80
2017-07-28T16:58:39.527Z,55.70
2017-07-28T17:01:07.028Z,55.60
2017-07-28T17:03:34.516Z,54.70
2017-07-28T17:06:02.022Z,54.40
2017-07-28T17:08:30.274Z,54.40
2017-07-28T17:10:57.796Z,54.40
2017-07-28T17:13:25.280Z,55.00
2017-07-28T17:15:52.807Z,55.50
2017-07-28T17:18:20.305Z,55.10
2017-07-28T17:20:47.812Z,55.10
2017-07-28T17:23:15.295Z,54.90
2017-07-28T17:25:42.811Z,55.20
2017-07-28T17:28:10.379Z,54.90
2017-07-28T17:30:37.852Z,54.70
2017-07-28T17:33:05.354Z,55.00
2017-07-28T17:35:32.844Z,55.20
2017-07-28T17:38:00.339Z,55.50
2017-07-28T17:40:27.822Z,56.00
2017-07-28T17:42:55.331Z,56.20
2017-07-28T17:45:22.816Z,56.00
2017-07-28T17:47:50.332Z,56.10
2017-07-28T17:50:17.831Z,56.60
2017-07-28T17:52:45.331Z,56.10
2017-07-28T17:55:12.825Z,56.20
2017-07-28T17:57:40.347Z,56.10
2017-07-28T18:00:07.844Z,56.40
2017-07-28T18:02:35.419Z,55.80
2017-07-28T18:05:02.950Z,56.30
2017-07-28T18:07:30.472Z,56.30
2017-07-28T18:09:57.965Z,56.20
2017-07-28T18:12:26.519Z,56.60
2017-07-28T18:14:54.007Z,56.30
2017-07-28T18:17:21.644Z,56.60
2017-07-28T18:19:49.154Z,56.00
2017-07-28T18:22:17.480Z,56.40
2017-07-28T18:24:45.256Z,56.30
2017-07-28T18:27:12.809Z,56.80
2017-07-28T18:29:41.157Z,56.70
2017-07-28T18:32:08.668Z,56.60
2017-07-28T18:34:36.168Z,56.90
2017-07-28T18:37:03.783Z,57.10
2017-07-28T18:39:31.519Z,57.20
2017-07-28T18:41:59.119Z,57.60
2017-07-28T18:44:26.699Z,56.90
2017-07-28T18:46:54.260Z,56.90
2017-07-28T18:49:21.866Z,57.50
2017-07-28T18:51:51.789Z,57.90
2017-07-28T18:54:19.368Z,58.10
2017-07-28T18:56:47.413Z,57.70
2017-07-28T18:59:15.012Z,58.10
2017-07-28T19:01:43.010Z,58.50
2017-07-28T19:04:10.612Z,58.70
2017-07-28T19:06:38.147Z,59.10
2017-07-28T19:09:05.666Z,59.30
2017-07-28T19:11:34.056Z,59.40
2017-07-28T19:14:02.565Z,59.20
2017-07-28T19:16:30.168Z,58.80
2017-07-28T19:18:57.697Z,59.50
2017-07-28T19:21:25.241Z,59.20
2017-07-28T19:23:55.020Z,59.20
2017-07-28T19:26:22.560Z,60.10
2017-07-28T19:28:50.119Z,59.90
2017-07-28T19:31:18.738Z,60.20
2017-07-28T19:33:46.437Z,61.10
2017-07-28T19:36:14.016Z,61.90
2017-07-28T19:38:41.676Z,62.00
2017-07-28T19:41:09.274Z,62.80
2017-07-28T19:43:36.874Z,63.00
2017-07-28T19:46:04.459Z,63.00
2017-07-28T19:48:31.999Z,63.20
2017-07-28T19:50:59.609Z,62.90
2017-07-28T19:53:27.127Z,63.00
2017-07-28T19:55:54.644Z,63.30
2017-07-28T19:58:22.239Z,64.60
2017-07-28T20:00:49.773Z,65.10
2017-07-28T20:03:17.337Z,65.50
2017-07-28T20:05:44.878Z,66.10
2017-07-28T20:08:13.198Z,66.40
2017-07-28T20:10:40.762Z,66.40
2017-07-28T20:13:08.296Z,66.40
2017-07-28T20:15:35.847Z,66.50
2017-07-28T20:18:03.770Z,66.60
2017-07-28T20:20:31.296Z,66.30
2017-07-28T20:22:58.940Z,66.60
2017-07-28T20:25:26.642Z,67.00
2017-07-28T20:27:54.392Z,67.10
2017-07-28T20:30:22.506Z,67.40
2017-07-28T20:32:50.078Z,67.10
2017-07-28T20:35:17.680Z,66.90
2017-07-28T20:37:45.253Z,66.70
2017-07-28T20:40:12.915Z,66.90
2017-07-28T20:42:40.764Z,66.90
2017-07-28T20:45:09.338Z,66.90
2017-07-28T20:47:36.938Z,66.70
2017-07-28T20:50:05.366Z,67.40
2017-07-28T20:52:32.904Z,67.00
2017-07-28T20:55:00.389Z,67.30
2017-07-28T20:57:27.893Z,67.40
2017-07-28T20:59:55.513Z,68.00
2017-07-28T21:02:23.040Z,69.20
2017-07-28T21:04:50.720Z,69.40
2017-07-28T21:07:18.573Z,70.20
2017-07-28T21:09:46.116Z,71.30
2017-07-28T21:12:14.328Z,71.80
2017-07-28T21:14:42.124Z,72.80
2017-07-28T21:17:09.619Z,73.50
2017-07-28T21:19:37.158Z,72.80
2017-07-28T21:22:04.682Z,72.50
2017-07-28T21:24:32.219Z,73.00
2017-07-28T21:26:59.737Z,73.00
2017-07-28T21:29:28.277Z,73.50
2017-07-28T21:31:56.528Z,73.60
2017-07-28T21:34:24.163Z,73.00
2017-07-28T21:36:51.719Z,72.90
2017-07-28T21:39:19.254Z,73.50
2017-07-28T21:41:49.264Z,73.50
2017-07-28T21:44:16.833Z,73.30
2017-07-28T21:46:44.526Z,72.90
2017-07-28T21:49:12.115Z,74.00
2017-07-28T21:51:39.807Z,74.70
2017-07-28T21:54:07.405Z,74.90
2017-07-28T21:56:36.063Z,74.00
2017-07-28T21:59:03.666Z,74.60
2017-07-28T22:01:31.175Z,75.10
2017-07-28T22:03:58.707Z,75.40
2017-07-28T22:06:26.365Z,75.70
2017-07-28T22:08:53.855Z,76.40
2017-07-28T22:11:21.396Z,76.80
2017-07-28T22:13:50.527Z,75.80
2017-07-28T22:16:18.091Z,76.00
2017-07-28T22:18:46.390Z,76.60
2017-07-28T22:21:13.926Z,77.00
2017-07-28T22:23:41.678Z,76.20
2017-07-28T22:26:09.276Z,76.60
2017-07-28T22:28:36.836Z,76.50
2017-07-28T22:31:04.360Z,76.30
2017-07-28T22:33:31.939Z,76.40
2017-07-28T22:35:59.450Z,77.00
2017-07-28T22:38:27.001Z,77.20
2017-07-28T22:40:54.615Z,77.20
2017-07-28T22:43:22.156Z,77.40
2017-07-28T22:45:49.918Z,76.90
2017-07-28T22:48:17.460Z,76.80
2017-07-28T22:50:45.073Z,76.20
2017-07-28T22:53:12.627Z,75.80
2017-07-28T22:55:40.224Z,75.80
2017-07-28T22:58:07.869Z,75.10
2017-07-28T23:00:36.328Z,75.50
2017-07-28T23:03:04.947Z,75.30
2017-07-28T23:05:32.846Z,74.90
2017-07-28T23:08:01.668Z,74.90
2017-07-28T23:10:29.356Z,74.40
2017-07-28T23:12:56.948Z,74.20
2017-07-28T23:15:24.454Z,74.20
2017-07-28T23:17:53.001Z,75.00
2017-07-28T23:20:20.525Z,74.90
2017-07-28T23:22:48.265Z,75.00
2017-07-28T23:25:18.401Z,75.30
2017-07-28T23:27:45.925Z,75.50
2017-07-28T23:30:13.471Z,75.50
2017-07-28T23:32:42.849Z,76.00
2017-07-28T23:35:10.406Z,76.60
2017-07-28T23:37:39.015Z,76.90
2017-07-28T23:40:07.302Z,77.50
2017-07-28T23:42:34.859Z,77.40
2017-07-28T23:45:02.420Z,77.90
2017-07-28T23:47:29.937Z,77.40
2017-07-28T23:49:59.409Z,77.40
2017-07-28T23:52:26.990Z,77.50
2017-07-28T23:54:55.061Z,77.40
2017-07-28T23:57:22.624Z,77.70
2017-07-28T23:59:50.313Z,77.50
